Portada
METAR-TAF:

METAR-TAF

Aeroports :

Pekanbaru, Indonèsia

latitud: 00-28N, longitud: 101-27E, altitud: 31 m

Observació

L'informe es va fer fa 45 minuts, a les 06:30 UTC
Vent calma
Temperatura 31°C
Humitat 66%
Pressió 1006 hPa
Visibilitat 10 km o més
Núvols disperses a una alçada de 1300 ft

METAR: WIBB 080630Z 00000KT 9999 SCT013 31/24 Q1006 NOSIG

Hora: 14:15 (07:15 UTC)


TAF: manca

Observacions i pronòstics meteorològics de més de 4000 aeroports (METAR i TAF).

Les estacions disponibles són els punts grocs i vermells al mapa.

Posi el ratolí al punt desitjat per veure el nom de l'estació.

Feu clic per veure les observacions i els pronòstics meteorològics.

Per canviar el mapa: feu clic els botons verds amb una creu de color negre per apropar; al botó verd amb un guió per allunyar la imatge; o en les fletxes verdes per a mapes adjacents.


METAR-TAF: